Time;durP1;ratioP1;P1;durP2;ratioP2;P2;SDS_P1;SDS_P2;PMS_P1;PMS_P2;Temp;Humidity;BMP_temperature;BMP_pressure;BME280_temperature;BME280_humidity;BME280_pressure;Samples;Min_cycle;Max_cycle;Signal;HPM_P1;HPM_P2
2023/03/10 00:02:33;;;;;;;8.75;2.53;;;;;;;9.39;100.00;98797.06;5192311;28;20025;-78
2023/03/10 00:05:04;;;;;;;6.63;2.50;;;;;;;9.38;100.00;98806.13;5199464;28;20109;-77
2023/03/10 00:07:34;;;;;;;6.85;2.33;;;;;;;9.40;100.00;98799.53;5173430;28;20035;-78
2023/03/10 00:10:05;;;;;;;5.68;2.28;;;;;;;9.40;100.00;98793.38;5193917;28;20017;-77
2023/03/10 00:12:36;;;;;;;9.75;2.75;;;;;;;9.42;100.00;98794.78;5196915;28;20033;-77
2023/03/10 00:15:08;;;;;;;5.78;2.60;;;;;;;9.44;100.00;98787.41;5208547;28;20029;-77
2023/03/10 00:17:39;;;;;;;7.25;2.83;;;;;;;9.45;100.00;98789.03;5199965;28;20031;-78
2023/03/10 00:20:11;;;;;;;10.85;4.82;;;;;;;9.45;100.00;98790.88;5209618;28;20460;-78
2023/03/10 00:22:42;;;;;;;9.82;3.38;;;;;;;9.49;100.00;98789.44;5211332;28;20091;-79
2023/03/10 00:25:14;;;;;;;9.43;3.67;;;;;;;9.48;100.00;98785.91;5190670;28;20017;-78
2023/03/10 00:27:44;;;;;;;10.35;4.25;;;;;;;9.51;100.00;98787.38;5195339;28;20040;-78
2023/03/10 00:30:15;;;;;;;10.77;4.07;;;;;;;9.52;100.00;98780.97;5217754;28;20104;-78
2023/03/10 00:32:46;;;;;;;7.25;3.58;;;;;;;9.51;100.00;98785.50;5216469;28;20025;-78
2023/03/10 00:35:19;;;;;;;8.27;3.45;;;;;;;9.52;100.00;98778.31;5215411;28;20028;-78
2023/03/10 00:37:49;;;;;;;6.47;3.00;;;;;;;9.56;100.00;98783.03;5214720;28;20021;-78
2023/03/10 00:40:20;;;;;;;13.85;3.70;;;;;;;9.59;100.00;98784.47;5199188;28;20051;-78
2023/03/10 00:42:51;;;;;;;7.70;3.08;;;;;;;9.58;100.00;98783.63;5198685;28;20032;-78
2023/03/10 00:45:21;;;;;;;8.75;3.20;;;;;;;9.59;100.00;98787.16;5203599;28;20032;-78
2023/03/10 00:47:52;;;;;;;9.40;3.40;;;;;;;9.63;100.00;98798.25;5213557;28;20033;-78
2023/03/10 00:50:22;;;;;;;7.15;3.17;;;;;;;9.63;100.00;98792.91;5199631;28;20021;-78
2023/03/10 00:52:53;;;;;;;9.15;3.45;;;;;;;9.62;100.00;98786.72;5195352;28;20028;-78
2023/03/10 00:55:23;;;;;;;10.40;3.13;;;;;;;9.62;100.00;98786.72;5214746;28;20046;-78
2023/03/10 00:57:54;;;;;;;6.45;2.65;;;;;;;9.65;100.00;98780.97;5191128;28;20032;-78
2023/03/10 01:00:24;;;;;;;9.65;2.70;;;;;;;9.66;100.00;98779.09;5224063;28;20489;-78
2023/03/10 01:02:55;;;;;;;6.88;2.72;;;;;;;9.63;100.00;98784.84;5186911;28;20033;-78
2023/03/10 01:05:27;;;;;;;9.52;2.35;;;;;;;9.59;100.00;98782.63;5207501;28;20023;-78
2023/03/10 01:07:58;;;;;;;16.00;3.88;;;;;;;9.54;100.00;98777.06;5225418;28;20052;-78
2023/03/10 01:10:28;;;;;;;7.63;2.47;;;;;;;9.51;100.00;98765.97;5189243;28;20017;-78
2023/03/10 01:12:59;;;;;;;10.00;2.67;;;;;;;9.58;100.00;98772.09;5210517;28;20032;-78
2023/03/10 01:15:29;;;;;;;14.80;3.17;;;;;;;9.54;100.00;98769.03;5211242;28;20067;-78
2023/03/10 01:18:02;;;;;;;11.55;2.53;;;;;;;9.56;100.00;98758.94;5229305;28;20093;-78
2023/03/10 01:20:33;;;;;;;9.90;2.45;;;;;;;9.59;100.00;98753.19;5212308;28;20155;-78
2023/03/10 01:23:04;;;;;;;10.65;3.33;;;;;;;9.55;100.00;98756.47;5228479;28;20111;-77
2023/03/10 01:25:34;;;;;;;6.82;2.42;;;;;;;9.57;100.00;98755.22;5211038;28;20119;-78
2023/03/10 01:28:05;;;;;;;8.40;2.85;;;;;;;9.55;100.00;98751.94;5208996;28;20458;-78
2023/03/10 01:30:36;;;;;;;10.00;3.63;;;;;;;9.56;100.00;98745.56;5224761;28;20037;-78
2023/03/10 01:33:07;;;;;;;9.90;3.00;;;;;;;9.61;100.00;98747.59;5204746;28;20025;-78
2023/03/10 01:35:39;;;;;;;11.07;3.75;;;;;;;9.60;100.00;98738.75;5205074;28;20058;-78
2023/03/10 01:38:09;;;;;;;14.77;4.10;;;;;;;9.60;100.00;98735.25;5229378;28;20059;-78
2023/03/10 01:40:47;;;;;;;9.43;4.05;;;;;;;9.58;100.00;98738.13;5210470;28;20433;-78
2023/03/10 01:43:19;;;;;;;13.80;4.43;;;;;;;9.53;100.00;98727.22;5212328;28;20021;-78
2023/03/10 01:45:52;;;;;;;15.85;4.10;;;;;;;9.52;100.00;98725.59;5222750;28;20025;-78
2023/03/10 01:48:22;;;;;;;15.20;4.13;;;;;;;9.53;100.00;98724.53;5201685;28;20401;-77
2023/03/10 01:50:56;;;;;;;12.90;4.68;;;;;;;9.53;100.00;98718.38;5201810;28;20029;-78
2023/03/10 01:53:27;;;;;;;8.82;3.67;;;;;;;9.53;100.00;98721.06;5217628;28;20029;-77
2023/03/10 01:56:02;;;;;;;14.02;4.00;;;;;;;9.56;100.00;98708.06;5204078;28;20025;-78
2023/03/10 01:58:39;;;;;;;21.43;4.57;;;;;;;9.59;100.00;98710.34;5218079;28;20075;-78
2023/03/10 02:01:12;;;;;;;14.90;4.05;;;;;;;9.63;100.00;98701.88;5208988;28;20275;-78
2023/03/10 02:04:00;;;;;;;15.65;3.38;;;;;;;9.63;100.00;98704.53;5214754;28;20022;-78
2023/03/10 02:06:41;;;;;;;19.17;7.20;;;;;;;9.61;100.00;98691.38;5212440;28;20080;-78
2023/03/10 02:09:23;;;;;;;17.00;4.13;;;;;;;9.63;100.00;98694.66;5216216;28;20063;-77
2023/03/10 02:11:58;;;;;;;10.10;3.40;;;;;;;9.54;100.00;98687.91;5199088;28;20049;-78
2023/03/10 02:14:30;;;;;;;16.90;3.45;;;;;;;9.53;100.00;98679.03;5214742;28;20028;-78
2023/03/10 02:17:04;;;;;;;15.88;4.50;;;;;;;9.53;100.00;98681.72;5216021;28;20025;-78
2023/03/10 02:19:50;;;;;;;13.95;2.97;;;;;;;9.53;100.00;98676.38;5212546;28;20025;-78
2023/03/10 02:22:20;;;;;;;;;;;;;;;9.54;100.00;98672.69;5195185;28;20033;-78
2023/03/10 02:24:56;;;;;;;16.33;2.88;;;;;;;9.52;100.00;98664.03;5196751;28;19913;-78
2023/03/10 02:27:43;;;;;;;20.60;3.15;;;;;;;9.56;100.00;98661.75;5215144;28;20027;-78
2023/03/10 02:30:17;;;;;;;18.10;2.58;;;;;;;9.53;100.00;98656.81;5201662;28;20072;-78
2023/03/10 02:32:51;;;;;;;11.27;2.67;;;;;;;9.49;100.00;98651.09;5228450;28;20115;-77
2023/03/10 02:35:22;;;;;;;15.38;2.08;;;;;;;9.50;100.00;98641.19;5228519;28;20052;-77
2023/03/10 02:37:53;;;;;;;14.02;2.65;;;;;;;9.53;100.00;98638.91;5228721;28;20416;-77
2023/03/10 02:41:00;;;;;;;16.48;2.25;;;;;;;9.53;100.00;98638.06;5229543;28;20021;-78
2023/03/10 02:43:33;;;;;;;19.58;3.53;;;;;;;9.47;100.00;98645.09;5218762;28;20078;-78
2023/03/10 02:46:06;;;;;;;15.82;2.25;;;;;;;9.43;100.00;98643.88;5212092;28;20026;-77
2023/03/10 02:48:38;;;;;;;20.38;2.30;;;;;;;9.42;100.00;98650.28;5211184;28;20021;-78
2023/03/10 02:51:15;;;;;;;17.35;3.65;;;;;;;9.39;100.00;98642.69;5194941;28;20032;-78
2023/03/10 02:53:45;;;;;;;14.07;3.40;;;;;;;9.37;100.00;98635.88;5229102;28;20048;-78
2023/03/10 02:56:16;;;;;;;17.17;2.63;;;;;;;9.35;100.00;98636.09;5229009;28;20447;-78
2023/03/10 02:58:46;;;;;;;14.52;2.53;;;;;;;9.37;100.00;98628.69;5227976;28;20680;-77
2023/03/10 03:01:18;;;;;;;12.45;2.55;;;;;;;9.37;100.00;98633.22;5212183;28;20394;-78
2023/03/10 03:03:49;;;;;;;18.02;2.38;;;;;;;9.37;100.00;98631.34;5203692;28;20024;-78
2023/03/10 03:06:20;;;;;;;17.70;2.33;;;;;;;9.38;100.00;98629.50;5191697;28;20017;-78
2023/03/10 03:08:50;;;;;;;13.68;3.08;;;;;;;9.43;100.00;98627.81;5202048;28;20465;-78
2023/03/10 03:11:21;;;;;;;18.63;2.38;;;;;;;9.44;100.00;98623.28;5225973;28;20025;-78
2023/03/10 03:13:52;;;;;;;13.65;2.40;;;;;;;9.43;100.00;98617.13;5201206;28;20067;-77
2023/03/10 03:16:22;;;;;;;19.17;2.58;;;;;;;9.44;100.00;98617.94;5219503;28;20040;-78
2023/03/10 03:18:53;;;;;;;22.95;2.45;;;;;;;9.47;100.00;98612.16;5205815;28;20048;-78
2023/03/10 03:21:24;;;;;;;14.45;2.28;;;;;;;9.45;100.00;98612.38;5204427;28;20021;-78
2023/03/10 03:23:55;;;;;;;19.23;2.67;;;;;;;9.46;100.00;98605.19;5200661;28;20500;-78
2023/03/10 03:26:26;;;;;;;22.00;3.03;;;;;;;9.46;100.00;98614.03;5228356;28;20017;-77
2023/03/10 03:28:56;;;;;;;21.35;3.13;;;;;;;9.46;100.00;98603.31;5198470;28;20112;-78
2023/03/10 03:31:27;;;;;;;20.65;2.50;;;;;;;9.47;100.00;98596.13;5222713;28;20458;-78
2023/03/10 03:33:57;;;;;;;13.98;2.67;;;;;;;9.44;100.00;98597.38;5220650;28;20116;-77
2023/03/10 03:36:28;;;;;;;17.80;2.40;;;;;;;9.40;100.00;98601.50;5222843;28;20439;-77
2023/03/10 03:38:58;;;;;;;18.25;3.28;;;;;;;9.43;100.00;98594.88;5204488;28;20396;-77
2023/03/10 03:41:29;;;;;;;28.45;3.13;;;;;;;9.43;100.00;98594.88;5222738;28;20090;-77
2023/03/10 03:43:59;;;;;;;19.67;4.63;;;;;;;9.41;100.00;98591.63;5207664;28;20040;-76
2023/03/10 03:46:30;;;;;;;24.40;6.30;;;;;;;9.42;100.00;98591.41;5221784;28;20104;-77
2023/03/10 03:49:00;;;;;;;15.38;2.80;;;;;;;9.42;100.00;98593.25;5223845;28;20024;-77
2023/03/10 03:51:31;;;;;;;24.45;4.60;;;;;;;9.41;100.00;98589.75;5222345;28;20116;-78
2023/03/10 03:54:01;;;;;;;12.73;3.03;;;;;;;9.40;100.00;98592.66;5208137;28;20103;-78
2023/03/10 03:56:32;;;;;;;18.58;2.97;;;;;;;9.40;100.00;98593.47;5205397;28;20038;-78
2023/03/10 03:59:02;;;;;;;22.92;4.63;;;;;;;9.41;100.00;98587.09;5186192;28;20045;-78
2023/03/10 04:01:33;;;;;;;20.23;3.38;;;;;;;9.43;100.00;98582.31;5211700;28;20066;-78
2023/03/10 04:04:03;;;;;;;25.25;4.25;;;;;;;9.40;100.00;98579.28;5218504;28;20036;-78
2023/03/10 04:06:34;;;;;;;21.23;3.67;;;;;;;9.42;100.00;98582.56;5212040;28;20028;-77
2023/03/10 04:09:05;;;;;;;22.27;3.38;;;;;;;9.42;100.00;98578.00;5211761;28;20090;-76
2023/03/10 04:11:36;;;;;;;19.92;3.08;;;;;;;9.41;100.00;98588.94;5210330;28;20025;-78
2023/03/10 04:14:06;;;;;;;25.52;3.42;;;;;;;9.39;100.00;98583.81;5196535;28;20098;-77
2023/03/10 04:16:36;;;;;;;19.73;3.10;;;;;;;9.40;100.00;98580.09;5193732;28;20022;-75
2023/03/10 04:19:07;;;;;;;18.92;2.60;;;;;;;9.43;100.00;98584.19;5192016;28;20025;-76
2023/03/10 04:21:38;;;;;;;29.52;4.00;;;;;;;9.43;100.00;98581.50;5206600;28;20021;-75
2023/03/10 04:24:08;;;;;;;16.75;2.63;;;;;;;9.45;100.00;98582.13;5207770;28;20056;-75
2023/03/10 04:26:39;;;;;;;18.13;2.95;;;;;;;9.49;100.00;98580.69;5207676;28;20021;-76
2023/03/10 04:29:09;;;;;;;19.98;2.92;;;;;;;9.47;100.00;98572.84;5208411;28;20025;-75
2023/03/10 04:31:40;;;;;;;17.52;2.38;;;;;;;9.48;100.00;98574.47;5216820;28;20052;-75
2023/03/10 04:34:10;;;;;;;23.17;2.83;;;;;;;9.45;100.00;98571.44;5211183;28;20032;-74
2023/03/10 04:36:41;;;;;;;15.32;2.75;;;;;;;9.45;100.00;98571.44;5194699;28;20031;-76
2023/03/10 04:39:11;;;;;;;14.75;2.30;;;;;;;9.45;100.00;98580.28;5175201;28;20084;-75
2023/03/10 04:41:42;;;;;;;16.00;2.50;;;;;;;9.47;100.00;98580.88;5203302;28;20038;-75
2023/03/10 04:44:13;;;;;;;14.27;2.33;;;;;;;9.48;100.00;98571.81;5198432;28;20025;-76
2023/03/10 04:46:43;;;;;;;16.75;2.55;;;;;;;9.47;100.00;98564.00;5212359;28;20021;-75
2023/03/10 04:49:15;;;;;;;13.35;2.80;;;;;;;9.48;100.00;98565.63;5208466;28;20121;-76
2023/03/10 04:51:45;;;;;;;13.88;1.80;;;;;;;9.45;100.00;98569.56;5194067;28;20034;-76
2023/03/10 04:54:16;;;;;;;6.18;1.88;;;;;;;9.44;100.00;98570.63;5209981;28;20084;-75
2023/03/10 04:56:46;;;;;;;12.15;1.90;;;;;;;9.41;100.00;98573.69;5210290;28;20033;-75
2023/03/10 04:59:18;;;;;;;12.55;2.15;;;;;;;9.44;100.00;98575.97;5216159;28;20025;-75
2023/03/10 05:01:51;;;;;;;12.90;2.85;;;;;;;9.44;100.00;98573.28;5206293;28;20029;-76
2023/03/10 05:04:21;;;;;;;18.13;3.30;;;;;;;9.47;100.00;98577.38;5215862;28;20025;-76
2023/03/10 05:06:52;;;;;;;18.02;2.10;;;;;;;9.44;100.00;98570.63;5198403;28;20034;-75
2023/03/10 05:09:22;;;;;;;8.32;1.83;;;;;;;9.44;100.00;98575.97;5209730;28;20020;-75
2023/03/10 05:11:53;;;;;;;10.18;1.88;;;;;;;9.40;100.00;98574.75;5211004;28;20052;-75
2023/03/10 05:14:23;;;;;;;13.57;2.97;;;;;;;9.40;100.00;98573.94;5209448;28;20492;-75
2023/03/10 05:16:54;;;;;;;15.32;2.22;;;;;;;9.34;100.00;98572.94;5208553;28;20029;-74
2023/03/10 05:19:24;;;;;;;14.23;1.65;;;;;;;9.32;100.00;98565.09;5209826;28;20516;-75
2023/03/10 05:21:55;;;;;;;14.85;1.85;;;;;;;9.27;100.00;98569.44;5188736;28;20051;-75
2023/03/10 05:24:25;;;;;;;11.70;1.58;;;;;;;9.27;100.00;98567.59;5191372;28;20044;-75
2023/03/10 05:26:56;;;;;;;13.57;1.70;;;;;;;9.23;100.00;98565.56;5207058;28;20051;-74
2023/03/10 05:29:27;;;;;;;13.95;2.10;;;;;;;9.22;100.00;98561.25;5212181;28;20576;-75
2023/03/10 05:31:57;;;;;;;10.95;1.98;;;;;;;9.18;100.00;98566.19;5208649;28;20724;-75
2023/03/10 05:34:29;;;;;;;14.68;1.85;;;;;;;9.15;100.00;98565.81;5215035;28;20108;-76
2023/03/10 05:36:59;;;;;;;10.57;1.63;;;;;;;9.14;100.00;98564.19;5184819;28;20433;-76
2023/03/10 05:39:30;;;;;;;8.52;1.55;;;;;;;9.09;100.00;98562.13;5203163;28;20017;-74
2023/03/10 05:42:00;;;;;;;13.70;2.08;;;;;;;9.05;100.00;98561.72;5196859;28;20028;-76
2023/03/10 05:44:31;;;;;;;18.02;1.95;;;;;;;9.05;100.00;98563.59;5186823;28;20025;-76
2023/03/10 05:47:01;;;;;;;14.15;2.00;;;;;;;9.03;100.00;98565.63;5215809;28;20038;-75
2023/03/10 05:49:32;;;;;;;11.30;1.73;;;;;;;9.01;100.00;98570.38;5202959;28;20029;-76
2023/03/10 05:52:03;;;;;;;14.63;2.03;;;;;;;9.01;100.00;98565.84;5185251;28;20071;-75
2023/03/10 05:54:33;;;;;;;7.13;2.00;;;;;;;9.02;100.00;98578.19;5202373;28;20026;-75
2023/03/10 05:57:04;;;;;;;11.10;1.65;;;;;;;9.00;100.00;98566.91;5184519;28;20044;-76
2023/03/10 05:59:34;;;;;;;10.25;1.63;;;;;;;9.05;100.00;98584.97;5213523;28;20029;-76
2023/03/10 06:02:05;;;;;;;14.88;2.50;;;;;;;9.04;100.00;98578.00;5206370;28;20017;-76
2023/03/10 06:04:36;;;;;;;7.97;1.90;;;;;;;9.04;100.00;98584.16;5222475;28;20025;-76
2023/03/10 06:07:07;;;;;;;12.02;2.13;;;;;;;9.04;100.00;98580.66;5222139;28;20047;-75
2023/03/10 06:09:37;;;;;;;12.20;1.60;;;;;;;9.04;100.00;98583.34;5218553;28;20108;-76
2023/03/10 06:12:08;;;;;;;18.40;1.60;;;;;;;9.03;100.00;98582.50;5226749;28;20029;-76
2023/03/10 06:14:39;;;;;;;20.20;2.03;;;;;;;9.03;100.00;98577.16;5218675;28;20050;-75
2023/03/10 06:17:09;;;;;;;8.88;1.55;;;;;;;9.03;100.00;98581.69;5220689;28;20025;-76
2023/03/10 06:19:40;;;;;;;12.48;1.90;;;;;;;9.05;100.00;98579.63;5201185;28;20021;-75
2023/03/10 06:22:10;;;;;;;12.98;2.78;;;;;;;9.04;100.00;98573.47;5220368;28;20051;-76
2023/03/10 06:24:41;;;;;;;17.63;2.28;;;;;;;9.04;100.00;98572.66;5203546;28;20029;-76
2023/03/10 06:27:12;;;;;;;9.35;2.03;;;;;;;9.05;100.00;98577.78;5219105;28;20025;-76
2023/03/10 06:29:42;;;;;;;10.57;2.58;;;;;;;9.11;100.00;98573.44;5225965;28;20035;-75
2023/03/10 06:32:13;;;;;;;9.65;1.55;;;;;;;9.12;100.00;98572.41;5218981;28;20053;-75
2023/03/10 06:34:43;;;;;;;10.93;2.00;;;;;;;9.17;100.00;98574.44;5202754;28;20032;-76
2023/03/10 06:37:14;;;;;;;19.17;2.25;;;;;;;9.19;100.00;98578.56;5215885;28;20029;-76
2023/03/10 06:39:44;;;;;;;15.40;2.03;;;;;;;9.24;100.00;98577.91;5219679;28;20444;-76
2023/03/10 06:42:15;;;;;;;19.50;3.17;;;;;;;9.27;100.00;98577.47;5220124;28;20025;-76
2023/03/10 06:44:45;;;;;;;20.98;3.70;;;;;;;9.26;100.00;98582.00;5190604;28;20191;-77
2023/03/10 06:47:16;;;;;;;11.23;2.17;;;;;;;9.29;100.00;98576.25;5202643;28;20020;-76
2023/03/10 06:49:46;;;;;;;16.85;2.38;;;;;;;9.28;100.00;98574.56;5216229;28;20220;-76
2023/03/10 06:52:17;;;;;;;16.33;2.00;;;;;;;9.23;100.00;98571.72;5219672;28;20021;-76
2023/03/10 06:54:47;;;;;;;20.13;2.25;;;;;;;9.27;100.00;98577.47;5215010;28;20030;-76
2023/03/10 06:57:18;;;;;;;9.98;2.25;;;;;;;9.31;100.00;98576.84;5202107;28;20025;-77
2023/03/10 06:59:48;;;;;;;15.02;2.38;;;;;;;9.44;100.00;98575.97;5202503;28;20432;-75
2023/03/10 07:02:19;;;;;;;13.20;1.90;;;;;;;9.72;100.00;98577.44;5220596;28;20029;-76
2023/03/10 07:04:49;;;;;;;13.48;2.28;;;;;;;10.00;100.00;98575.19;5217471;28;20072;-76
2023/03/10 07:07:20;;;;;;;16.92;2.15;;;;;;;10.17;100.00;98574.63;5204349;28;20111;-76
2023/03/10 07:09:50;;;;;;;11.88;2.40;;;;;;;10.39;100.00;98575.91;5203663;28;20025;-76
2023/03/10 07:12:21;;;;;;;14.68;2.20;;;;;;;10.51;100.00;98567.97;5207579;28;20021;-76
2023/03/10 07:14:51;;;;;;;17.30;2.47;;;;;;;10.73;100.00;98573.72;5203092;28;20029;-76
2023/03/10 07:17:22;;;;;;;17.98;2.45;;;;;;;10.98;100.00;98574.47;5205265;28;20025;-76
2023/03/10 07:19:52;;;;;;;9.15;2.33;;;;;;;11.19;100.00;98567.81;5203601;28;20052;-77
2023/03/10 07:22:23;;;;;;;16.83;2.38;;;;;;;11.20;100.00;98574.84;5185791;28;20026;-76
2023/03/10 07:24:54;;;;;;;12.82;1.90;;;;;;;11.17;100.00;98575.28;5203279;28;20847;-76
2023/03/10 07:27:24;;;;;;;11.50;2.45;;;;;;;11.20;100.00;98580.22;5202997;28;20029;-77
2023/03/10 07:29:55;;;;;;;11.60;2.17;;;;;;;10.84;100.00;98589.06;5206002;28;20025;-76
2023/03/10 07:32:25;;;;;;;14.15;2.10;;;;;;;10.71;100.00;98589.22;5202543;28;20029;-77
2023/03/10 07:34:56;;;;;;;18.23;2.20;;;;;;;10.48;100.00;98592.53;5211200;28;20470;-76
2023/03/10 07:37:26;;;;;;;14.50;1.98;;;;;;;10.43;100.00;98589.69;5196341;28;20112;-77
2023/03/10 07:39:57;;;;;;;9.98;1.80;;;;;;;10.31;100.00;98597.66;5194701;28;20017;-76
2023/03/10 07:42:27;;;;;;;14.05;2.92;;;;;;;10.30;100.00;98591.47;5201498;28;20075;-76
2023/03/10 07:44:58;;;;;;;14.30;2.53;;;;;;;10.16;100.00;98600.63;5196165;28;20083;-77
2023/03/10 07:47:29;;;;;;;16.65;3.00;;;;;;;10.01;100.00;98592.91;5212197;28;20056;-77
2023/03/10 07:49:59;;;;;;;12.68;2.47;;;;;;;10.01;100.00;98598.25;5216343;28;20566;-76
2023/03/10 07:52:30;;;;;;;12.43;2.13;;;;;;;10.03;100.00;98592.66;5210868;28;20021;-76
2023/03/10 07:55:00;;;;;;;15.13;2.10;;;;;;;9.96;100.00;98603.44;5216955;28;20474;-76
2023/03/10 07:57:31;;;;;;;9.00;2.17;;;;;;;9.95;100.00;98609.03;5191929;28;20063;-76
2023/03/10 08:00:02;;;;;;;9.35;3.58;;;;;;;9.84;100.00;98605.19;5221657;28;20020;-77
2023/03/10 08:02:33;;;;;;;19.02;2.00;;;;;;;9.76;100.00;98608.09;5192012;28;20448;-77
2023/03/10 08:05:04;;;;;;;18.20;3.53;;;;;;;9.72;100.00;98610.38;5221683;28;20036;-77
2023/03/10 08:07:36;;;;;;;12.20;3.38;;;;;;;9.67;100.00;98609.38;5201847;28;20025;-78
2023/03/10 08:10:09;;;;;;;11.27;2.00;;;;;;;9.63;100.00;98618.88;5221683;28;20033;-78
2023/03/10 08:12:39;;;;;;;16.00;3.72;;;;;;;9.54;100.00;98619.16;5207179;28;20025;-78
2023/03/10 08:15:10;;;;;;;18.30;2.40;;;;;;;9.47;100.00;98626.38;5218342;28;20025;-78
2023/03/10 08:17:41;;;;;;;18.38;2.83;;;;;;;9.46;100.00;98613.22;5211296;28;20029;-79
2023/03/10 08:20:12;;;;;;;16.88;2.72;;;;;;;9.32;100.00;98612.44;5214834;28;20112;-78
2023/03/10 08:22:43;;;;;;;18.25;2.58;;;;;;;9.37;100.00;98612.63;5185699;28;20071;-78
2023/03/10 08:25:14;;;;;;;14.65;2.80;;;;;;;9.31;100.00;98611.63;5215891;28;20029;-78
2023/03/10 08:27:44;;;;;;;14.45;2.30;;;;;;;9.23;100.00;98605.69;5218988;28;20067;-78
2023/03/10 08:30:15;;;;;;;23.45;3.92;;;;;;;9.21;100.00;98608.56;5202357;28;20017;-78
2023/03/10 08:32:46;;;;;;;17.48;4.15;;;;;;;9.26;100.00;98606.09;5218611;28;20330;-77
2023/03/10 08:35:16;;;;;;;16.08;2.97;;;;;;;9.29;100.00;98615.56;5222746;28;20120;-79
2023/03/10 08:37:47;;;;;;;17.02;3.28;;;;;;;9.30;100.00;98609.16;5200474;28;20028;-79
2023/03/10 08:40:18;;;;;;;18.38;3.20;;;;;;;9.31;100.00;98603.59;5219872;28;20053;-78
2023/03/10 08:42:48;;;;;;;13.35;2.65;;;;;;;9.24;100.00;98602.81;5203692;28;20026;-78
2023/03/10 08:45:19;;;;;;;16.58;3.67;;;;;;;9.20;100.00;98592.75;5219658;28;20020;-78
2023/03/10 08:47:49;;;;;;;15.52;2.70;;;;;;;9.05;100.00;98591.16;5213775;28;20087;-76
2023/03/10 08:50:20;;;;;;;30.13;4.75;;;;;;;8.98;100.00;98592.19;5219902;28;20115;-78
2023/03/10 08:52:50;;;;;;;27.92;3.60;;;;;;;8.96;100.00;98579.03;5213897;28;20028;-78
2023/03/10 08:55:21;;;;;;;22.83;2.90;;;;;;;8.95;100.00;98589.97;5218696;28;20021;-79
2023/03/10 08:57:51;;;;;;;14.18;3.28;;;;;;;8.91;100.00;98591.41;5212869;28;20052;-79
2023/03/10 09:00:22;;;;;;;15.93;4.00;;;;;;;8.90;100.00;98581.75;5189978;28;20036;-78
2023/03/10 09:02:53;;;;;;;14.63;2.85;;;;;;;8.90;100.00;98587.09;5201544;28;20025;-78
2023/03/10 09:05:24;;;;;;;14.15;2.92;;;;;;;8.89;100.00;98578.25;5218807;28;20064;-79
2023/03/10 09:07:54;;;;;;;14.70;2.60;;;;;;;8.91;100.00;98586.88;5196931;28;20025;-79
2023/03/10 09:10:26;;;;;;;15.30;2.20;;;;;;;8.81;100.00;98587.31;5194326;28;20509;-79
2023/03/10 09:12:56;;;;;;;13.75;2.60;;;;;;;8.76;100.00;98591.66;5210878;28;20029;-78
2023/03/10 09:15:27;;;;;;;13.85;2.70;;;;;;;8.68;100.00;98591.84;5194843;28;20052;-78
2023/03/10 09:17:57;;;;;;;9.65;2.42;;;;;;;8.65;100.00;98587.75;5204461;28;20032;-78
2023/03/10 09:20:28;;;;;;;13.10;3.03;;;;;;;8.65;100.00;98593.13;5184637;28;20104;-78
2023/03/10 09:22:58;;;;;;;15.57;2.58;;;;;;;8.73;100.00;98584.03;5199063;28;20041;-78
2023/03/10 09:25:29;;;;;;;11.75;3.03;;;;;;;8.79;100.00;98589.38;5195111;28;20017;-79
2023/03/10 09:27:59;;;;;;;14.02;2.83;;;;;;;8.78;100.00;98587.72;5183024;28;20022;-79
2023/03/10 09:30:30;;;;;;;12.32;2.45;;;;;;;8.76;100.00;98599.66;5219498;28;20033;-79
2023/03/10 09:33:00;;;;;;;16.20;3.60;;;;;;;8.82;100.00;98593.47;5197689;28;20032;-78
2023/03/10 09:35:31;;;;;;;8.63;2.55;;;;;;;8.83;100.00;98592.44;5217482;28;20029;-79
2023/03/10 09:38:02;;;;;;;9.38;2.50;;;;;;;8.88;100.00;98592.63;5226886;28;20490;-78
2023/03/10 09:40:33;;;;;;;12.25;2.40;;;;;;;8.78;100.00;98594.91;5208899;28;20037;-79
2023/03/10 09:43:22;;;;;;;7.38;2.58;;;;;;;8.80;100.00;98598.22;5213204;28;20024;-78
2023/03/10 09:46:03;;;;;;;6.70;2.03;;;;;;;8.80;100.00;98598.22;5225138;28;20021;-78
2023/03/10 09:48:47;;;;;;;11.30;2.35;;;;;;;8.84;100.00;98588.75;5207857;28;20029;-78
2023/03/10 09:51:21;;;;;;;13.60;2.47;;;;;;;8.83;100.00;98592.44;5227273;28;20025;-79
2023/03/10 09:54:18;;;;;;;17.55;3.25;;;;;;;8.84;100.00;98607.47;5228699;28;20032;-78
2023/03/10 09:56:49;;;;;;;8.27;1.80;;;;;;;8.88;100.00;98597.16;5203264;28;20033;-79
2023/03/10 09:59:38;;;;;;;7.85;2.25;;;;;;;8.94;100.00;98612.38;5219378;28;20039;-79
2023/03/10 10:02:19;;;;;;;9.50;2.25;;;;;;;9.04;100.00;98623.47;5192837;28;20036;-78
2023/03/10 10:04:54;;;;;;;9.05;1.80;;;;;;;9.04;100.00;98623.47;5223954;28;20033;-78
2023/03/10 10:07:40;;;;;;;9.95;2.60;;;;;;;9.10;100.00;98622.63;5218435;28;20094;-79
2023/03/10 10:10:26;;;;;;;8.20;2.08;;;;;;;9.19;100.00;98620.53;5219219;28;20037;-79
2023/03/10 10:13:02;;;;;;;4.72;2.08;;;;;;;9.26;100.00;98632.84;5203016;28;20155;-79
2023/03/10 10:15:36;;;;;;;7.22;2.42;;;;;;;9.20;100.00;98630.19;5204100;28;20051;-78
2023/03/10 10:18:45;;;;;;;10.55;2.88;;;;;;;9.33;100.00;98627.47;5199047;28;20029;-78
2023/03/10 10:21:24;;;;;;;11.88;2.90;;;;;;;9.26;100.00;98638.19;5215874;28;20108;-77
2023/03/10 10:23:57;;;;;;;7.43;3.08;;;;;;;9.37;100.00;98639.38;5218983;28;20033;-79
2023/03/10 10:26:28;;;;;;;6.82;3.05;;;;;;;9.38;100.00;98641.03;5199840;28;20051;-79
2023/03/10 10:29:05;;;;;;;5.60;2.95;;;;;;;9.40;100.00;98638.16;5219255;28;20018;-79
2023/03/10 10:31:36;;;;;;;7.88;3.40;;;;;;;9.45;100.00;98631.13;5220696;28;20036;-78
2023/03/10 10:34:21;;;;;;;8.30;3.30;;;;;;;9.49;100.00;98643.06;5199534;28;20030;-78
2023/03/10 10:36:55;;;;;;;7.15;3.22;;;;;;;9.39;100.00;98637.34;5203303;28;20060;-78
2023/03/10 10:39:45;;;;;;;8.48;3.70;;;;;;;9.39;100.00;98631.97;5221354;28;20037;-79
2023/03/10 10:42:35;;;;;;;7.85;3.28;;;;;;;9.49;100.00;98631.53;5194442;28;20026;-78
2023/03/10 10:45:26;;;;;;;8.10;3.05;;;;;;;9.62;100.00;98622.59;5198957;28;20047;-78
2023/03/10 10:47:56;;;;;;;6.45;3.53;;;;;;;9.54;100.00;98621.81;5174422;28;20026;-78
2023/03/10 10:50:29;;;;;;;6.30;3.97;;;;;;;9.69;100.00;98618.00;5207709;28;20470;-78
2023/03/10 10:53:12;;;;;;;8.65;4.68;;;;;;;9.70;100.00;98617.81;5215770;28;20090;-78
2023/03/10 10:55:45;;;;;;;6.45;3.30;;;;;;;9.71;100.00;98618.63;5192254;28;20034;-78
2023/03/10 10:58:36;;;;;;;9.20;3.30;;;;;;;9.75;100.00;98638.59;5204840;28;20425;-78
2023/03/10 11:01:11;;;;;;;5.38;3.38;;;;;;;9.82;100.00;98639.38;5205972;28;20120;-79
2023/03/10 11:03:45;;;;;;;6.95;2.95;;;;;;;9.82;100.00;98658.13;5208363;28;20520;-78
2023/03/10 11:06:17;;;;;;;6.32;2.90;;;;;;;9.85;100.00;98663.88;5222683;28;20031;-78
2023/03/10 11:08:49;;;;;;;8.55;3.58;;;;;;;9.93;100.00;98667.31;5197298;28;20032;-79
2023/03/10 11:11:44;;;;;;;11.98;2.95;;;;;;;9.94;100.00;98663.59;5192219;28;20087;-79
2023/03/10 11:14:31;;;;;;;5.47;3.15;;;;;;;9.93;100.00;98675.34;5211815;28;20385;-78
2023/03/10 11:17:05;;;;;;;5.43;2.92;;;;;;;9.96;100.00;98670.41;5222547;28;21051;-78
2023/03/10 11:19:56;;;;;;;4.47;2.33;;;;;;;10.01;100.00;98667.91;5197936;28;20029;-77
2023/03/10 11:22:36;;;;;;;4.03;2.47;;;;;;;10.01;100.00;98659.88;5217419;28;20044;-78
2023/03/10 11:25:30;;;;;;;7.22;2.53;;;;;;;10.00;100.00;98649.38;5177907;28;20034;-78
2023/03/10 11:28:19;;;;;;;3.70;2.45;;;;;;;10.03;100.00;98644.38;5195929;28;20178;-79
2023/03/10 11:31:08;;;;;;;5.35;2.55;;;;;;;9.98;100.00;98646.88;5216524;28;20064;-78
2023/03/10 11:33:44;;;;;;;4.40;2.58;;;;;;;9.96;100.00;98638.25;5198811;28;20032;-79
2023/03/10 11:36:34;;;;;;;5.82;2.53;;;;;;;10.06;100.00;98633.25;5194929;28;20030;-78
2023/03/10 11:39:29;;;;;;;4.72;2.75;;;;;;;10.11;100.00;98638.78;5219211;28;20036;-78
2023/03/10 11:42:13;;;;;;;5.40;2.95;;;;;;;10.22;100.00;98652.50;5198946;28;20053;-78
2023/03/10 11:44:57;;;;;;;6.57;3.08;;;;;;;10.44;100.00;98647.63;5203603;28;20291;-78
2023/03/10 11:48:03;;;;;;;10.13;4.38;;;;;;;10.68;100.00;98656.69;5218279;28;20021;-78
2023/03/10 11:50:54;;;;;;;8.27;3.28;;;;;;;10.64;100.00;98659.00;5217673;28;20075;-77
2023/03/10 11:53:46;;;;;;;5.07;3.30;;;;;;;10.60;100.00;98653.28;5219135;28;20017;-79
2023/03/10 11:56:21;;;;;;;7.40;2.72;;;;;;;10.55;100.00;98642.38;5195613;28;20029;-78